Time;durP1;ratioP1;P1;durP2;ratioP2;P2;SDS_P1;SDS_P2;PMS_P1;PMS_P2;Temp;Humidity;BMP_temperature;BMP_pressure;BME280_temperature;BME280_humidity;BME280_pressure;Samples;Min_cycle;Max_cycle;Signal;HPM_P1;HPM_P2
2023/12/28 00:01:37;;;;;;;8.20;3.73;;;10.80;99.90;;;;;;5001549;28;36875;-77
2023/12/28 00:04:03;;;;;;;7.30;3.27;;;10.80;99.90;;;;;;5023811;28;37604;-78
2023/12/28 00:06:29;;;;;;;13.17;3.43;;;10.80;99.90;;;;;;5009016;28;39669;-78
2023/12/28 00:08:55;;;;;;;9.60;3.60;;;10.80;99.90;;;;;;5006516;28;36914;-77
2023/12/28 00:11:21;;;;;;;9.23;3.37;;;10.80;99.90;;;;;;5004332;28;38812;-78
2023/12/28 00:13:50;;;;;;;9.47;3.10;;;10.80;99.90;;;;;;5005611;28;39853;-77
2023/12/28 00:16:17;;;;;;;9.87;3.57;;;10.70;99.90;;;;;;5008331;28;39008;-77
2023/12/28 00:18:43;;;;;;;7.77;3.47;;;10.70;99.90;;;;;;5004687;28;38522;-77
2023/12/28 00:21:09;;;;;;;10.30;3.47;;;10.70;99.90;;;;;;5003718;28;37907;-77
2023/12/28 00:23:35;;;;;;;12.10;3.40;;;10.80;99.90;;;;;;4993771;28;38021;-77
2023/12/28 00:26:01;;;;;;;6.17;3.20;;;10.80;99.90;;;;;;5008070;28;37966;-77
2023/12/28 00:28:28;;;;;;;6.63;3.30;;;10.80;99.90;;;;;;5008920;28;39067;-78
2023/12/28 00:30:54;;;;;;;11.27;3.40;;;10.80;99.90;;;;;;5005898;28;39928;-77
2023/12/28 00:33:20;;;;;;;7.17;3.10;;;10.80;99.90;;;;;;5001623;28;38648;-77
2023/12/28 00:35:47;;;;;;;7.17;3.03;;;10.80;99.90;;;;;;5003225;28;39267;-77
2023/12/28 00:38:13;;;;;;;7.90;3.53;;;10.80;99.90;;;;;;5016561;28;39728;-77
2023/12/28 00:40:39;;;;;;;6.60;3.40;;;10.80;99.90;;;;;;4998684;28;38016;-77
2023/12/28 00:43:05;;;;;;;6.43;3.10;;;10.80;99.90;;;;;;4998539;28;39793;-77
2023/12/28 00:45:31;;;;;;;9.30;2.73;;;10.80;99.90;;;;;;5000574;28;40802;-77
2023/12/28 00:48:00;;;;;;;9.13;2.80;;;10.80;99.90;;;;;;5002751;28;38689;-77
2023/12/28 00:50:31;;;;;;;10.07;3.03;;;10.80;99.90;;;;;;4989428;28;20050;-77
2023/12/28 00:53:00;;;;;;;8.90;3.37;;;10.80;99.90;;;;;;4996510;28;38940;-77
2023/12/28 00:55:27;;;;;;;9.90;2.70;;;10.80;99.90;;;;;;5020450;28;37343;-77
2023/12/28 00:57:53;;;;;;;7.00;3.00;;;10.90;99.90;;;;;;5008537;28;37994;-76
2023/12/28 01:00:20;;;;;;;11.33;2.60;;;10.90;99.90;;;;;;4999196;28;36049;-77
2023/12/28 01:02:50;;;;;;;13.13;3.10;;;10.90;99.90;;;;;;4999831;28;47203;-77
2023/12/28 01:05:17;;;;;;;9.30;2.80;;;10.80;99.90;;;;;;5024499;28;37418;-77
2023/12/28 01:07:44;;;;;;;7.37;3.50;;;10.80;99.90;;;;;;5005300;28;38301;-77
2023/12/28 01:10:10;;;;;;;4.87;2.93;;;10.80;99.90;;;;;;5004105;28;37886;-77
2023/12/28 01:12:36;;;;;;;8.87;3.40;;;10.70;99.90;;;;;;5008316;28;39904;-77
2023/12/28 01:15:03;;;;;;;9.77;3.60;;;10.70;99.90;;;;;;5006872;28;37283;-77
2023/12/28 01:17:29;;;;;;;6.93;3.37;;;10.70;99.90;;;;;;5005362;28;37008;-77
2023/12/28 01:19:55;;;;;;;6.97;3.00;;;10.70;99.90;;;;;;5004293;28;38199;-77
2023/12/28 01:22:21;;;;;;;5.77;3.23;;;10.70;99.90;;;;;;5007983;28;40580;-77
2023/12/28 01:24:49;;;;;;;7.57;3.47;;;10.70;99.90;;;;;;5009444;28;39304;-77
2023/12/28 01:27:16;;;;;;;10.53;3.43;;;10.70;99.90;;;;;;5005515;28;37957;-78
2023/12/28 01:29:42;;;;;;;9.53;4.13;;;10.70;99.90;;;;;;5005832;28;36967;-77
2023/12/28 01:32:09;;;;;;;9.80;3.37;;;10.70;99.90;;;;;;5005240;28;38793;-77
2023/12/28 01:34:35;;;;;;;8.83;3.73;;;10.70;99.90;;;;;;5004827;28;37499;-78
2023/12/28 01:37:01;;;;;;;7.20;2.90;;;10.70;99.90;;;;;;5021918;28;38713;-77
2023/12/28 01:39:27;;;;;;;8.17;3.10;;;10.80;99.90;;;;;;5004897;28;47597;-77
2023/12/28 01:41:53;;;;;;;10.07;3.20;;;10.80;99.90;;;;;;5006182;28;37556;-77
2023/12/28 01:44:20;;;;;;;8.97;3.10;;;10.80;99.90;;;;;;5001805;28;38470;-77
2023/12/28 01:46:46;;;;;;;6.77;3.17;;;10.70;99.90;;;;;;5004659;28;38527;-78
2023/12/28 01:49:12;;;;;;;10.10;3.03;;;10.80;99.90;;;;;;5001457;28;38006;-77
2023/12/28 01:51:39;;;;;;;9.27;2.80;;;10.80;99.90;;;;;;5007034;28;38533;-77
2023/12/28 01:54:06;;;;;;;10.00;2.50;;;10.80;99.90;;;;;;4997540;28;39408;-78
2023/12/28 01:56:32;;;;;;;6.97;2.57;;;10.80;99.90;;;;;;5022647;28;37117;-77
2023/12/28 01:58:59;;;;;;;7.63;2.63;;;10.80;99.90;;;;;;5005552;28;38105;-78
2023/12/28 02:04:11;;;;;;;8.53;2.47;;;10.80;99.90;;;;;;3948165;22;20051;-81
2023/12/28 02:06:47;;;;;;;6.10;2.63;;;10.80;99.90;;;;;;5013973;28;50197;-81
2023/12/28 02:09:16;;;;;;;7.23;2.43;;;10.80;99.90;;;;;;5031360;28;37375;-81
2023/12/28 02:11:42;;;;;;;9.00;3.17;;;10.70;99.90;;;;;;5021977;28;38569;-82
2023/12/28 02:14:08;;;;;;;12.17;3.00;;;10.70;99.90;;;;;;5027202;28;37227;-81
2023/12/28 02:16:43;;;;;;;9.87;2.43;;;10.70;99.90;;;;;;5021356;28;37074;-81
2023/12/28 02:19:30;;;;;;;12.47;2.83;;;10.70;99.90;;;;;;5015673;28;37433;-81
2023/12/28 02:22:07;;;;;;;6.50;2.73;;;10.70;99.90;;;;;;5004955;28;38531;-81
2023/12/28 02:24:55;;;;;;;9.47;2.70;;;10.70;99.90;;;;;;5012417;28;47356;-81
2023/12/28 02:27:22;;;;;;;9.10;2.30;;;10.70;99.90;;;;;;5004005;28;39288;-81
2023/12/28 02:29:52;;;;;;;6.70;2.70;;;10.60;99.90;;;;;;5023031;28;35885;-82
2023/12/28 02:32:27;;;;;;;9.67;2.73;;;10.70;99.90;;;;;;5007302;28;39916;-81
2023/12/28 02:38:45;;;;;;;12.27;3.43;;;10.70;99.90;;;;;;5007902;28;50741;-81
2023/12/28 02:41:17;;;;;;;11.57;2.97;;;10.60;99.90;;;;;;5005576;28;36928;-82
2023/12/28 02:43:43;;;;;;;9.38;2.67;;;10.60;99.90;;;;;;5015012;28;40358;-81
2023/12/28 02:46:19;;;;;;;8.70;3.00;;;10.60;99.90;;;;;;5015481;28;40024;-82
2023/12/28 02:48:50;;;;;;;9.43;2.50;;;10.70;99.90;;;;;;5050910;28;41212;-81
2023/12/28 02:51:17;;;;;;;10.50;2.83;;;10.70;99.90;;;;;;5013255;28;37406;-81
2023/12/28 02:53:55;;;;;;;10.90;2.57;;;10.70;99.90;;;;;;5018093;28;39013;-81
2023/12/28 02:56:32;;;;;;;14.67;2.70;;;10.70;99.90;;;;;;5002405;28;39461;-81
2023/12/28 02:59:30;;;;;;;9.60;2.37;;;10.70;99.90;;;;;;5009562;28;38341;-81
2023/12/28 03:01:57;;;;;;;9.27;1.90;;;10.70;99.90;;;;;;5015552;28;48093;-81
2023/12/28 03:08:23;;;;;;;15.13;2.83;;;10.70;99.90;;;;;;5008576;28;50024;-81
2023/12/28 03:11:04;;;;;;;7.60;2.13;;;10.70;99.90;;;;;;5011674;28;47984;-82
2023/12/28 03:13:56;;;;;;;15.00;2.90;;;10.70;99.90;;;;;;5013764;28;48509;-81
2023/12/28 03:17:05;;;;;;;12.33;2.67;;;10.70;99.90;;;;;;5028990;28;39221;-82
2023/12/28 03:19:45;;;;;;;14.30;2.50;;;10.70;99.90;;;;;;5010622;28;48497;-81
2023/12/28 03:22:12;;;;;;;14.50;2.43;;;10.80;99.90;;;;;;5011624;28;38118;-80
2023/12/28 03:24:56;;;;;;;9.47;2.60;;;10.70;99.90;;;;;;5026369;28;36459;-81
2023/12/28 03:27:23;;;;;;;11.13;2.23;;;10.70;99.90;;;;;;5001275;28;39240;-81
2023/12/28 03:29:49;;;;;;;13.37;2.17;;;10.60;99.90;;;;;;5036993;28;37465;-81
2023/12/28 03:32:26;;;;;;;9.60;2.20;;;10.60;99.90;;;;;;5026157;28;38258;-81
2023/12/28 03:34:52;;;;;;;10.93;2.70;;;10.60;99.90;;;;;;5027729;28;37402;-81
2023/12/28 03:37:32;;;;;;;12.47;2.50;;;10.50;99.90;;;;;;5024931;28;38899;-81
2023/12/28 03:40:05;;;;;;;16.50;2.90;;;10.50;99.90;;;;;;5013951;28;37723;-81
2023/12/28 03:42:31;;;;;;;15.43;3.63;;;10.50;99.90;;;;;;5029477;28;48400;-81
2023/12/28 03:44:57;;;;;;;6.80;2.10;;;10.60;99.90;;;;;;5003114;28;36351;-81
2023/12/28 03:47:29;;;;;;;12.47;2.23;;;10.60;99.90;;;;;;5011553;28;39225;-81
2023/12/28 03:50:06;;;;;;;16.23;2.47;;;10.60;99.90;;;;;;5019272;28;38158;-81
2023/12/28 03:52:32;;;;;;;10.57;2.23;;;10.60;99.90;;;;;;5013539;28;48143;-81
2023/12/28 03:54:58;;;;;;;11.37;2.00;;;10.60;99.90;;;;;;5017762;28;36907;-81
2023/12/28 03:57:46;;;;;;;15.80;2.60;;;10.60;99.90;;;;;;5012569;28;40209;-81
2023/12/28 04:00:14;;;;;;;15.63;2.50;;;10.70;99.90;;;;;;5036900;28;38545;-82
2023/12/28 04:02:51;;;;;;;14.30;2.70;;;10.70;99.90;;;;;;5016896;28;37665;-81
2023/12/28 04:05:17;;;;;;;14.43;2.07;;;10.70;99.90;;;;;;5007248;28;37491;-80
2023/12/28 04:08:04;;;;;;;9.57;2.07;;;10.80;99.90;;;;;;5011158;28;38358;-80
2023/12/28 04:10:36;;;;;;;12.73;2.53;;;10.80;99.90;;;;;;5024715;28;48442;-81
2023/12/28 04:13:05;;;;;;;14.70;2.25;;;10.90;99.90;;;;;;5013769;28;38647;-80
2023/12/28 04:15:31;;;;;;;15.37;2.60;;;11.00;99.90;;;;;;5021987;28;35932;-81
2023/12/28 04:17:57;;;;;;;15.63;2.60;;;11.10;99.90;;;;;;5023411;28;37778;-81
2023/12/28 04:20:23;;;;;;;14.60;2.60;;;11.10;99.90;;;;;;5015984;28;37311;-81
2023/12/28 04:22:54;;;;;;;10.23;2.30;;;11.10;99.90;;;;;;5011077;28;37362;-81
2023/12/28 04:25:22;;;;;;;15.87;2.77;;;11.20;99.90;;;;;;5015649;28;37294;-81
2023/12/28 04:27:58;;;;;;;15.67;3.10;;;11.20;99.90;;;;;;5018141;28;38551;-82
2023/12/28 04:30:24;;;;;;;14.33;2.23;;;11.20;99.90;;;;;;5015553;28;38634;-81
2023/12/28 04:32:56;;;;;;;21.60;3.63;;;11.20;99.90;;;;;;5012270;28;37025;-82
2023/12/28 04:35:29;;;;;;;13.73;2.53;;;11.20;99.90;;;;;;5028674;28;39294;-81
2023/12/28 04:38:08;;;;;;;16.27;2.27;;;11.20;99.90;;;;;;5013542;28;38217;-80
2023/12/28 04:40:37;;;;;;;17.27;2.60;;;11.20;99.90;;;;;;5013051;28;47217;-80
2023/12/28 04:43:04;;;;;;;14.23;2.47;;;11.20;99.90;;;;;;5025712;28;38303;-81
2023/12/28 04:45:30;;;;;;;13.77;2.47;;;11.20;99.90;;;;;;5016957;28;38689;-81
2023/12/28 04:48:06;;;;;;;15.37;2.40;;;11.20;99.90;;;;;;5012437;28;40369;-81
2023/12/28 04:50:41;;;;;;;13.32;2.95;;;11.20;99.90;;;;;;5017638;28;47756;-81
2023/12/28 04:53:07;;;;;;;12.57;3.27;;;11.20;99.90;;;;;;5015322;28;39196;-81
2023/12/28 04:56:02;;;;;;;12.40;2.47;;;11.30;99.90;;;;;;5017140;28;36267;-81
2023/12/28 04:58:28;;;;;;;13.30;2.40;;;11.30;99.90;;;;;;5013908;28;46841;-81
2023/12/28 05:01:13;;;;;;;15.20;2.40;;;11.30;99.90;;;;;;5072908;22;38260;-81
2023/12/28 05:03:48;;;;;;;22.73;3.27;;;11.30;99.90;;;;;;5029812;28;45233;-81
2023/12/28 05:06:14;;;;;;;16.73;2.87;;;11.20;99.90;;;;;;5025703;28;35721;-81
2023/12/28 05:09:04;;;;;;;11.27;2.20;;;11.30;99.90;;;;;;5029224;28;40247;-81
2023/12/28 05:11:30;;;;;;;19.83;2.83;;;11.30;99.90;;;;;;5032667;28;50362;-80
2023/12/28 05:13:57;;;;;;;13.45;2.67;;;11.30;99.90;;;;;;5032672;28;38047;-81
2023/12/28 05:16:31;;;;;;;17.60;2.60;;;11.30;99.90;;;;;;5030328;28;38977;-82
2023/12/28 05:18:57;;;;;;;12.93;2.90;;;11.30;99.90;;;;;;5030962;28;39035;-81
2023/12/28 05:21:24;;;;;;;14.63;2.37;;;11.30;99.90;;;;;;5025700;28;40004;-81
2023/12/28 05:23:50;;;;;;;18.75;2.70;;;11.30;99.90;;;;;;5030199;28;37991;-82
2023/12/28 05:26:17;;;;;;;20.23;3.75;;;11.30;99.90;;;;;;5030307;28;37126;-81
2023/12/28 05:28:43;;;;;;;15.88;4.15;;;11.30;99.90;;;;;;5030261;28;35008;-81
2023/12/28 05:31:28;;;;;;;12.15;2.30;;;11.30;99.90;;;;;;5025600;28;40669;-81
2023/12/28 05:33:55;;;;;;;16.70;3.08;;;11.30;99.90;;;;;;5028027;28;37092;-81
2023/12/28 05:36:21;;;;;;;19.05;2.88;;;11.30;99.90;;;;;;5025974;28;37048;-81
2023/12/28 05:38:47;;;;;;;16.80;3.00;;;11.30;99.90;;;;;;5029775;28;39986;-81
2023/12/28 05:41:13;;;;;;;16.97;3.17;;;11.30;99.90;;;;;;5028548;28;39840;-81
2023/12/28 05:43:39;;;;;;;16.67;2.72;;;11.30;99.90;;;;;;5028822;28;38032;-81
2023/12/28 05:46:05;;;;;;;21.65;3.38;;;11.30;99.90;;;;;;5021764;28;37343;-81
2023/12/28 05:48:39;;;;;;;17.75;3.25;;;11.40;99.90;;;;;;5027160;28;39475;-80
2023/12/28 05:51:13;;;;;;;14.45;3.00;;;11.40;99.90;;;;;;5028216;28;38285;-81
2023/12/28 05:53:39;;;;;;;18.55;2.38;;;11.40;99.90;;;;;;5027156;28;37120;-81
2023/12/28 05:56:06;;;;;;;21.67;3.33;;;11.40;99.90;;;;;;5032955;28;37525;-81
2023/12/28 05:58:32;;;;;;;18.45;3.20;;;11.40;99.90;;;;;;5036938;28;40798;-81
2023/12/28 06:03:45;;;;;;;25.13;3.10;;;11.40;99.90;;;;;;5343687;22;20042;-81
2023/12/28 06:06:21;;;;;;;22.23;4.05;;;11.40;99.90;;;;;;5029587;28;35895;-80
2023/12/28 06:09:08;;;;;;;24.33;3.83;;;11.40;99.90;;;;;;5037464;28;40362;-80
2023/12/28 06:11:43;;;;;;;21.38;3.58;;;11.40;99.90;;;;;;5037139;28;48980;-81
2023/12/28 06:14:09;;;;;;;27.75;3.92;;;11.40;99.90;;;;;;5036628;28;40170;-79
2023/12/28 06:16:35;;;;;;;21.77;3.88;;;11.50;99.90;;;;;;5033263;28;38747;-80
2023/12/28 06:19:02;;;;;;;25.27;3.35;;;11.50;99.90;;;;;;5032993;28;40829;-80
2023/12/28 06:21:29;;;;;;;20.42;3.30;;;11.50;99.90;;;;;;5038674;28;39941;-80
2023/12/28 06:23:56;;;;;;;30.05;3.95;;;11.50;99.90;;;;;;5031257;28;40910;-81
2023/12/28 06:26:24;;;;;;;27.25;3.83;;;11.50;99.90;;;;;;5037199;28;38353;-80
2023/12/28 06:28:50;;;;;;;21.85;3.80;;;11.50;99.90;;;;;;5035751;28;38696;-81
2023/12/28 06:31:25;;;;;;;29.30;5.13;;;11.50;99.90;;;;;;5037042;28;38702;-81
2023/12/28 06:34:05;;;;;;;24.27;3.38;;;11.40;99.90;;;;;;5037882;28;38210;-81
2023/12/28 06:36:33;;;;;;;25.37;4.67;;;11.30;99.90;;;;;;5032312;28;47870;-81
2023/12/28 06:39:00;;;;;;;25.33;3.50;;;11.20;99.90;;;;;;5033374;28;37903;-80
2023/12/28 06:41:38;;;;;;;22.00;3.93;;;11.20;99.90;;;;;;5034066;28;38570;-81
2023/12/28 06:44:26;;;;;;;25.73;3.70;;;11.10;99.90;;;;;;5032953;28;39515;-80
2023/12/28 06:46:56;;;;;;;21.17;3.40;;;11.10;99.90;;;;;;5035234;28;38495;-81
2023/12/28 06:49:30;;;;;;;25.27;4.57;;;11.00;99.90;;;;;;5035905;28;38483;-81
2023/12/28 06:51:56;;;;;;;27.07;3.87;;;11.00;99.90;;;;;;5022102;28;40610;-82
2023/12/28 06:54:37;;;;;;;32.83;4.23;;;11.00;99.90;;;;;;5035141;28;38019;-81
2023/12/28 06:57:10;;;;;;;25.37;4.77;;;10.90;99.90;;;;;;5032978;28;37378;-80
2023/12/28 06:59:52;;;;;;;23.50;3.75;;;10.90;99.90;;;;;;5045363;28;40342;-82
2023/12/28 07:02:18;;;;;;;24.48;3.53;;;10.80;99.90;;;;;;5023806;28;38413;-81
2023/12/28 07:04:47;;;;;;;21.53;4.57;;;10.80;99.90;;;;;;5037450;28;38894;-81
2023/12/28 07:07:13;;;;;;;22.30;3.63;;;10.90;99.90;;;;;;5025762;28;38673;-80
2023/12/28 07:09:47;;;;;;;14.50;2.83;;;11.00;99.90;;;;;;5023530;28;39123;-81
2023/12/28 07:12:23;;;;;;;13.97;2.70;;;11.00;99.90;;;;;;5024469;28;37868;-81
2023/12/28 07:14:56;;;;;;;18.47;3.90;;;11.10;99.90;;;;;;5033160;28;37322;-81
2023/12/28 07:17:29;;;;;;;18.63;3.13;;;11.10;99.90;;;;;;5035272;28;37503;-81
2023/12/28 07:19:56;;;;;;;19.77;3.33;;;11.10;99.90;;;;;;5020289;28;40338;-81
2023/12/28 07:22:22;;;;;;;20.47;3.80;;;11.10;99.90;;;;;;5023937;28;38658;-81
2023/12/28 07:24:49;;;;;;;28.97;3.67;;;11.00;99.90;;;;;;5030777;28;39559;-80
2023/12/28 07:27:15;;;;;;;19.93;3.13;;;11.10;99.90;;;;;;5024865;28;36917;-80
2023/12/28 07:29:42;;;;;;;17.60;3.60;;;11.10;99.90;;;;;;5026759;28;38832;-81
2023/12/28 07:32:09;;;;;;;19.50;3.47;;;11.10;99.90;;;;;;5018252;28;38846;-80
2023/12/28 07:34:42;;;;;;;21.30;3.30;;;11.10;99.90;;;;;;5033731;28;39599;-81
2023/12/28 07:37:08;;;;;;;18.00;3.40;;;11.20;99.90;;;;;;5038285;28;36955;-80
2023/12/28 07:39:34;;;;;;;21.70;3.27;;;11.20;99.90;;;;;;5025390;28;38377;-81
2023/12/28 07:42:00;;;;;;;20.40;4.23;;;11.10;99.90;;;;;;5026281;28;38630;-81
2023/12/28 07:44:36;;;;;;;16.40;3.37;;;11.10;99.90;;;;;;5037658;28;48352;-81
2023/12/28 07:47:02;;;;;;;21.10;3.13;;;11.10;99.90;;;;;;5035712;28;36047;-80
2023/12/28 07:49:30;;;;;;;24.87;3.60;;;11.10;99.90;;;;;;5032018;28;38983;-81
2023/12/28 07:52:00;;;;;;;26.57;3.60;;;11.10;99.90;;;;;;5037312;28;37519;-81
2023/12/28 07:54:32;;;;;;;22.83;3.57;;;11.10;99.90;;;;;;5017594;28;47354;-81
2023/12/28 07:57:00;;;;;;;28.52;3.40;;;11.10;99.90;;;;;;5033401;28;37081;-81
2023/12/28 07:59:26;;;;;;;19.13;3.27;;;11.10;99.90;;;;;;5026773;28;38100;-81
2023/12/28 08:01:52;;;;;;;22.83;3.23;;;11.10;99.90;;;;;;5024134;28;37481;-81
2023/12/28 08:04:18;;;;;;;25.93;4.47;;;11.10;99.90;;;;;;5022116;28;37204;-81
2023/12/28 08:06:44;;;;;;;17.43;3.30;;;11.10;99.90;;;;;;5031031;28;36861;-80
2023/12/28 08:09:10;;;;;;;21.27;4.60;;;11.10;99.90;;;;;;5026542;28;38173;-81
2023/12/28 08:11:48;;;;;;;20.80;3.50;;;11.10;99.90;;;;;;5029375;28;37327;-82
2023/12/28 08:14:14;;;;;;;23.57;3.07;;;11.10;99.90;;;;;;5039949;28;37289;-81
2023/12/28 08:16:45;;;;;;;20.87;3.40;;;11.10;99.90;;;;;;5032672;28;38534;-81
2023/12/28 08:19:17;;;;;;;20.50;3.43;;;11.10;99.90;;;;;;5031653;28;39624;-80
2023/12/28 08:21:43;;;;;;;23.42;3.80;;;11.10;99.90;;;;;;5027509;28;38191;-81
2023/12/28 08:24:10;;;;;;;32.17;4.83;;;11.10;99.90;;;;;;5031221;28;39152;-81
2023/12/28 08:26:36;;;;;;;20.97;3.90;;;11.10;99.90;;;;;;5025977;28;38567;-81
2023/12/28 08:29:02;;;;;;;20.83;2.92;;;11.10;99.90;;;;;;5033003;28;39344;-80
2023/12/28 08:31:31;;;;;;;19.85;4.05;;;11.20;99.90;;;;;;5027351;28;38314;-81
2023/12/28 08:33:59;;;;;;;16.13;4.13;;;11.20;99.90;;;;;;5031047;28;36840;-80
2023/12/28 08:36:25;;;;;;;21.40;4.20;;;11.20;99.90;;;;;;5023727;28;38148;-80
2023/12/28 08:38:51;;;;;;;29.50;3.97;;;11.20;99.90;;;;;;5028292;28;37934;-81
2023/12/28 08:41:35;;;;;;;19.90;3.60;;;11.20;99.90;;;;;;5034229;28;40094;-81
2023/12/28 08:44:02;;;;;;;21.60;3.05;;;11.20;99.90;;;;;;5024198;28;37299;-80
2023/12/28 08:46:28;;;;;;;26.87;3.27;;;11.20;99.90;;;;;;5022359;28;47255;-80
2023/12/28 08:48:55;;;;;;;20.77;4.07;;;11.30;99.90;;;;;;5025771;28;37764;-81
2023/12/28 08:51:22;;;;;;;24.27;3.60;;;11.20;99.90;;;;;;5033201;28;38568;-80
2023/12/28 08:53:48;;;;;;;24.00;3.47;;;11.30;99.90;;;;;;5029613;28;37212;-80
2023/12/28 08:56:17;;;;;;;27.88;4.30;;;11.20;99.90;;;;;;5031354;28;36129;-81
2023/12/28 08:58:44;;;;;;;18.48;3.33;;;11.30;99.90;;;;;;5020648;28;37674;-81
2023/12/28 09:01:25;;;;;;;21.00;3.30;;;11.30;99.90;;;;;;5027580;28;38195;-80
2023/12/28 09:03:52;;;;;;;24.97;4.07;;;11.30;99.90;;;;;;5026780;28;38603;-81
2023/12/28 09:06:25;;;;;;;27.20;3.93;;;11.30;99.90;;;;;;5025074;28;36098;-81
2023/12/28 09:08:52;;;;;;;15.88;3.67;;;11.30;99.90;;;;;;5018710;28;39963;-81
2023/12/28 09:11:19;;;;;;;22.03;3.57;;;11.40;99.90;;;;;;5018228;28;39102;-81
2023/12/28 09:13:45;;;;;;;21.98;3.45;;;11.40;99.90;;;;;;5013728;28;37188;-80
2023/12/28 09:16:14;;;;;;;26.85;3.67;;;11.40;99.90;;;;;;5025580;28;37426;-81
2023/12/28 09:18:41;;;;;;;21.48;3.35;;;11.50;99.90;;;;;;5027070;28;38421;-80
2023/12/28 09:21:08;;;;;;;19.58;3.90;;;11.50;99.90;;;;;;5010957;28;38461;-79
2023/12/28 09:23:35;;;;;;;24.10;3.40;;;11.50;99.90;;;;;;5000878;28;36768;-79
2023/12/28 09:26:06;;;;;;;20.55;3.95;;;11.50;99.90;;;;;;5010799;28;37044;-79
2023/12/28 09:28:32;;;;;;;15.13;3.55;;;11.60;99.90;;;;;;5010078;28;40143;-80
2023/12/28 09:30:59;;;;;;;21.17;3.50;;;11.60;99.90;;;;;;5008627;28;37238;-80
2023/12/28 09:33:25;;;;;;;24.08;4.72;;;11.70;99.90;;;;;;5007425;28;41403;-80
2023/12/28 09:35:53;;;;;;;24.90;3.83;;;11.70;99.90;;;;;;5031554;28;37513;-80
2023/12/28 09:38:19;;;;;;;23.92;3.85;;;11.70;99.90;;;;;;5009787;28;38599;-81
2023/12/28 09:40:45;;;;;;;28.20;5.40;;;11.70;99.90;;;;;;5035477;28;37978;-80
2023/12/28 09:43:23;;;;;;;23.17;3.58;;;11.70;99.90;;;;;;5015766;28;38278;-80
2023/12/28 09:45:50;;;;;;;23.50;4.13;;;11.70;99.90;;;;;;5013263;28;35589;-80
2023/12/28 09:48:19;;;;;;;24.15;3.45;;;11.80;99.90;;;;;;5002944;28;39787;-80
2023/12/28 09:50:49;;;;;;;20.30;3.65;;;11.70;99.90;;;;;;5005588;28;38592;-80
2023/12/28 09:53:15;;;;;;;23.25;3.95;;;11.80;99.90;;;;;;5009232;28;38215;-79
2023/12/28 09:55:42;;;;;;;23.52;3.75;;;11.80;99.90;;;;;;5016853;28;37067;-80
2023/12/28 09:58:12;;;;;;;24.50;4.05;;;11.80;99.90;;;;;;5004478;28;39539;-80
2023/12/28 10:00:38;;;;;;;24.48;3.50;;;11.80;99.90;;;;;;5003748;28;37390;-80
2023/12/28 10:03:04;;;;;;;18.77;3.67;;;11.80;99.90;;;;;;5011533;28;37040;-80
2023/12/28 10:05:30;;;;;;;21.58;4.05;;;11.70;99.90;;;;;;5010034;28;38244;-80
2023/12/28 10:07:57;;;;;;;23.87;3.93;;;11.80;99.90;;;;;;5015696;28;39072;-80
2023/12/28 10:10:23;;;;;;;22.65;4.10;;;11.70;99.90;;;;;;5012231;28;39901;-80
2023/12/28 10:12:49;;;;;;;23.67;3.63;;;11.70;99.90;;;;;;5006210;28;39843;-80
2023/12/28 10:15:15;;;;;;;25.67;3.78;;;11.70;99.90;;;;;;5013435;28;37347;-80
2023/12/28 10:17:42;;;;;;;24.65;5.07;;;11.70;99.90;;;;;;5007876;28;39071;-80
2023/12/28 10:20:09;;;;;;;25.25;4.28;;;11.70;99.90;;;;;;5006323;28;40334;-79
2023/12/28 10:22:37;;;;;;;21.45;4.15;;;11.70;99.90;;;;;;5025579;28;38683;-79
2023/12/28 10:25:04;;;;;;;25.70;4.18;;;11.60;99.90;;;;;;5009655;28;36446;-80
2023/12/28 10:27:30;;;;;;;28.52;4.38;;;11.60;99.90;;;;;;5014421;28;48826;-80
2023/12/28 10:29:57;;;;;;;18.38;3.88;;;11.60;99.90;;;;;;5017086;28;39852;-80
2023/12/28 10:32:24;;;;;;;21.27;3.22;;;11.60;99.90;;;;;;5007917;28;38509;-80
2023/12/28 10:34:56;;;;;;;29.20;3.88;;;11.60;99.90;;;;;;5009033;28;38274;-80
2023/12/28 10:37:26;;;;;;;25.35;4.43;;;11.60;99.90;;;;;;5006431;28;39641;-80
2023/12/28 10:39:55;;;;;;;26.35;4.47;;;11.60;99.90;;;;;;5008538;28;38175;-80
2023/12/28 10:42:28;;;;;;;26.00;4.13;;;11.60;99.90;;;;;;5008023;28;38960;-79
2023/12/28 10:44:58;;;;;;;30.13;4.57;;;11.60;99.90;;;;;;5023636;28;38098;-79
2023/12/28 10:47:27;;;;;;;21.63;3.75;;;11.60;99.90;;;;;;5007100;28;40470;-80
2023/12/28 10:49:56;;;;;;;22.05;4.25;;;11.60;99.90;;;;;;5002231;28;39799;-80
2023/12/28 10:52:26;;;;;;;31.20;4.33;;;11.60;99.90;;;;;;5009530;28;40008;-79
2023/12/28 10:55:21;;;;;;;21.95;4.30;;;11.70;99.90;;;;;;5007849;28;38949;-80
2023/12/28 10:58:19;;;;;;;23.05;4.53;;;11.70;99.90;;;;;;5006045;28;49543;-78
2023/12/28 11:00:52;;;;;;;28.17;4.55;;;11.80;99.90;;;;;;5006941;28;48288;-80
2023/12/28 11:03:27;;;;;;;27.70;3.97;;;11.80;99.90;;;;;;5002863;28;37109;-79
2023/12/28 11:05:55;;;;;;;24.13;3.83;;;11.80;99.90;;;;;;5004558;28;37767;-79
2023/12/28 11:08:21;;;;;;;33.47;5.03;;;11.90;99.90;;;;;;5008308;28;39163;-80
2023/12/28 11:10:50;;;;;;;21.65;3.88;;;11.90;99.10;;;;;;5012560;28;38336;-80
2023/12/28 11:13:19;;;;;;;26.20;4.65;;;11.90;99.00;;;;;;5007878;28;38534;-80
2023/12/28 11:15:47;;;;;;;28.25;4.20;;;12.00;98.20;;;;;;5011772;28;37750;-80
2023/12/28 11:18:15;;;;;;;23.10;4.20;;;12.00;99.50;;;;;;5009613;28;39615;-80
2023/12/28 11:20:45;;;;;;;23.50;3.83;;;12.10;99.50;;;;;;5010871;28;39477;-80
2023/12/28 11:23:12;;;;;;;27.25;4.07;;;12.10;99.90;;;;;;5012954;28;38316;-80
2023/12/28 11:25:38;;;;;;;27.70;4.60;;;12.00;99.40;;;;;;5012002;28;39130;-80
2023/12/28 11:28:12;;;;;;;27.00;3.75;;;12.00;97.10;;;;;;5007448;28;39822;-79
2023/12/28 11:30:38;;;;;;;25.83;4.60;;;12.10;96.50;;;;;;5011530;28;37569;-80
2023/12/28 11:33:05;;;;;;;23.95;4.32;;;12.10;93.40;;;;;;5007668;28;39112;-79
2023/12/28 11:35:37;;;;;;;24.65;3.72;;;12.20;94.60;;;;;;5004873;28;38065;-80
2023/12/28 11:38:09;;;;;;;25.75;4.60;;;12.20;92.80;;;;;;5004955;28;39713;-80
2023/12/28 11:40:46;;;;;;;25.52;5.50;;;12.20;94.50;;;;;;5009935;28;39051;-80
2023/12/28 11:43:19;;;;;;;25.50;5.03;;;12.20;92.70;;;;;;5006472;28;38046;-80
2023/12/28 11:45:54;;;;;;;22.95;4.68;;;12.30;88.20;;;;;;5011821;28;36993;-80
2023/12/28 11:48:27;;;;;;;20.92;3.72;;;12.20;87.00;;;;;;5007938;28;39797;-79
2023/12/28 11:50:58;;;;;;;26.88;4.13;;;12.30;89.50;;;;;;5009501;28;38183;-81
2023/12/28 11:53:25;;;;;;;26.10;4.63;;;12.20;85.30;;;;;;5015386;28;37955;-80
2023/12/28 11:55:52;;;;;;;22.75;3.70;;;12.20;86.50;;;;;;5016621;28;38322;-80
2023/12/28 11:58:19;;;;;;;21.90;4.50;;;12.20;86.40;;;;;;5014264;28;39664;-79
2023/12/28 12:00:45;;;;;;;24.02;4.35;;;12.20;87.70;;;;;;5006620;28;38693;-79
2023/12/28 12:03:12;;;;;;;18.83;3.63;;;12.30;92.00;;;;;;5010807;28;39201;-80
2023/12/28 12:05:39;;;;;;;24.88;4.05;;;12.30;80.60;;;;;;5011027;28;38244;-79
2023/12/28 12:08:13;;;;;;;26.13;3.53;;;12.20;83.50;;;;;;5009280;28;40027;-79
2023/12/28 12:10:40;;;;;;;21.55;4.07;;;12.20;88.60;;;;;;5010468;28;39036;-80
2023/12/28 12:13:08;;;;;;;27.52;3.95;;;12.20;86.40;;;;;;5013190;28;37987;-79
2023/12/28 12:15:34;;;;;;;25.63;3.60;;;12.20;87.00;;;;;;5014435;28;37272;-80
2023/12/28 12:18:02;;;;;;;32.13;4.53;;;12.20;89.20;;;;;;5007301;28;38210;-80
2023/12/28 12:20:29;;;;;;;21.38;3.92;;;12.20;86.90;;;;;;5009408;28;47113;-79
2023/12/28 12:22:59;;;;;;;25.35;4.22;;;12.20;86.40;;;;;;5003846;28;39775;-79
2023/12/28 12:25:26;;;;;;;32.38;4.80;;;12.20;88.40;;;;;;4999753;28;37384;-79
2023/12/28 12:27:52;;;;;;;29.33;4.68;;;12.10;87.70;;;;;;5009118;28;41433;-80
2023/12/28 12:30:20;;;;;;;21.60;3.60;;;12.10;90.70;;;;;;5010202;28;39960;-79
2023/12/28 12:32:46;;;;;;;25.52;4.22;;;12.20;91.90;;;;;;5010711;28;38944;-79
2023/12/28 12:35:14;;;;;;;21.15;3.47;;;12.20;90.20;;;;;;5014063;28;37323;-80
2023/12/28 12:37:41;;;;;;;21.33;3.90;;;12.10;86.10;;;;;;5009225;28;40118;-79
2023/12/28 12:40:08;;;;;;;25.25;4.50;;;12.20;90.30;;;;;;5010586;28;39276;-79
2023/12/28 12:42:34;;;;;;;31.38;4.78;;;12.20;89.90;;;;;;5006981;28;37699;-79
2023/12/28 12:45:01;;;;;;;26.05;3.47;;;12.10;89.20;;;;;;5008094;28;36438;-79
2023/12/28 12:47:33;;;;;;;21.27;3.90;;;12.10;91.70;;;;;;5008309;28;39783;-79
2023/12/28 12:50:00;;;;;;;;;;;12.10;91.60;;;;;;5008376;28;40385;-79
2023/12/28 12:52:27;;;;;;;24.02;4.18;;;12.10;86.30;;;;;;5002556;28;38127;-79
2023/12/28 12:54:57;;;;;;;23.85;4.20;;;12.10;85.90;;;;;;5009204;28;36132;-78
2023/12/28 12:57:26;;;;;;;21.17;3.45;;;12.10;90.20;;;;;;5005418;28;39717;-79
2023/12/28 12:59:52;;;;;;;26.45;4.53;;;12.10;94.00;;;;;;5007586;28;39004;-80
2023/12/28 13:02:18;;;;;;;27.40;3.90;;;12.10;92.30;;;;;;5004379;28;38923;-79
2023/12/28 13:04:44;;;;;;;25.10;4.05;;;12.10;89.70;;;;;;5022352;28;37458;-79